This is the latest recevied weather packets stored in our database for station/object Ostrach. If no packets are shown the sender has not sent any weather packets the latest 10 day(s).
| Time | Temp. | Humidity | Pressure | Rain* | Wind** | Luminosity | Snow |
|---|---|---|---|---|---|---|---|
| 1788134532 | 14.44° C | 90% | 1011 hPa | 0 mm | - | - | - |
| 1788132731 | 14.44° C | 89% | 1010.9 hPa | 0 mm | - | - | - |
| 1788130931 | 15° C | 88% | 1011.1 hPa | 0 mm | - | - | - |
| 1788129131 | 15.56° C | 87% | 1011.4 hPa | 0 mm | - | - | - |
| 1788127337 | 16.11° C | 85% | 1011.6 hPa | 0 mm | - | - | - |
| 1788125531 | 16.67° C | 84% | 1011.6 hPa | 0 mm | - | - | - |
| 1788123730 | 16.67° C | 82% | 1011.8 hPa | 0 mm | - | - | - |
| 1788121931 | 17.22° C | 82% | 1011.9 hPa | 0 mm | - | - | - |
| 1788120131 | 16.67° C | 83% | 1011.9 hPa | 0 mm | - | - | - |
| 1788118330 | 17.78° C | 80% | 1011.9 hPa | 0 mm | - | - | - |
| 1788116531 | 18.33° C | 76% | 1011.9 hPa | 0 mm | - | - | - |
| 1788114730 | 20° C | 72% | 1011.8 hPa | 0 mm | - | - | - |
| 1788112931 | 21.67° C | 66% | 1011.7 hPa | 0 mm | - | - | - |
| 1788111130 | 23.89° C | 60% | 1011.6 hPa | 0 mm | - | - | - |
| 1788109331 | 25.56° C | 50% | 1011.6 hPa | 0 mm | - | - | - |
| 1788107531 | 26.67° C | 48% | 1011.6 hPa | 0 mm | - | - | - |
| 1788105731 | 26.67° C | 50% | 1011.6 hPa | 0 mm | - | - | - |
| 1788103931 | 27.22° C | 48% | 1011.9 hPa | 0 mm | - | - | - |
| 1788102130 | 26.67° C | 51% | 1011.9 hPa | 0 mm | - | - | - |
| 1788100331 | 25.56° C | 54% | 1012.1 hPa | 0 mm | - | - | - |
| 1788098531 | 26.11° C | 53% | 1012.2 hPa | 0 mm | - | - | - |
| 1788096730 | 26.67° C | 55% | 1012.3 hPa | 0 mm | - | - | - |
| 1788094931 | 26.11° C | 55% | 1012.5 hPa | 0 mm | - | - | - |
| 1788093130 | 26.11° C | 55% | 1012.8 hPa | 0 mm | - | - | - |
| 1788091330 | 25.56° C | 55% | 1012.9 hPa | 0 mm | - | - | - |
* Rain since midnight (hover to see other rain measurements)
** Current wind speed in m/s (hover to see current wind gust speed)